sensor_id;sensor_type;location;lat;lon;timestamp;temperature;humidity
10030;DHT22;5055;52.054;8.524;2023-06-04T00:01:58;8.70;97.00
10030;DHT22;5055;52.054;8.524;2023-06-04T00:04:28;8.60;97.00
10030;DHT22;5055;52.054;8.524;2023-06-04T00:07:00;8.60;97.00
10030;DHT22;5055;52.054;8.524;2023-06-04T00:09:29;8.60;97.00
10030;DHT22;5055;52.054;8.524;2023-06-04T00:12:01;8.50;97.00
10030;DHT22;5055;52.054;8.524;2023-06-04T00:14:34;8.50;97.00
10030;DHT22;5055;52.054;8.524;2023-06-04T00:17:04;8.40;97.00
10030;DHT22;5055;52.054;8.524;2023-06-04T00:19:37;8.40;97.00
10030;DHT22;5055;52.054;8.524;2023-06-04T00:22:06;8.30;97.00
10030;DHT22;5055;52.054;8.524;2023-06-04T00:24:36;8.30;97.00
10030;DHT22;5055;52.054;8.524;2023-06-04T00:27:06;8.20;97.00
10030;DHT22;5055;52.054;8.524;2023-06-04T00:29:36;8.20;97.00
10030;DHT22;5055;52.054;8.524;2023-06-04T00:32:06;8.20;97.00
10030;DHT22;5055;52.054;8.524;2023-06-04T00:34:35;8.10;97.00
10030;DHT22;5055;52.054;8.524;2023-06-04T00:37:04;8.10;97.00
10030;DHT22;5055;52.054;8.524;2023-06-04T00:39:32;8.00;97.00
10030;DHT22;5055;52.054;8.524;2023-06-04T00:42:01;8.00;97.00
10030;DHT22;5055;52.054;8.524;2023-06-04T00:44:30;7.90;97.00
10030;DHT22;5055;52.054;8.524;2023-06-04T00:47:00;7.90;97.00
10030;DHT22;5055;52.054;8.524;2023-06-04T00:49:29;7.90;97.00
10030;DHT22;5055;52.054;8.524;2023-06-04T00:52:00;7.80;97.00
10030;DHT22;5055;52.054;8.524;2023-06-04T00:54:30;7.80;97.00
10030;DHT22;5055;52.054;8.524;2023-06-04T00:56:59;7.80;97.00
10030;DHT22;5055;52.054;8.524;2023-06-04T00:59:29;7.80;97.00
10030;DHT22;5055;52.054;8.524;2023-06-04T01:02:02;7.70;97.00
10030;DHT22;5055;52.054;8.524;2023-06-04T01:04:35;7.70;97.00
10030;DHT22;5055;52.054;8.524;2023-06-04T01:07:05;7.70;97.00
10030;DHT22;5055;52.054;8.524;2023-06-04T01:09:36;7.70;97.00
10030;DHT22;5055;52.054;8.524;2023-06-04T01:12:09;7.60;97.00
10030;DHT22;5055;52.054;8.524;2023-06-04T01:14:38;7.60;97.00
10030;DHT22;5055;52.054;8.524;2023-06-04T01:17:13;7.60;97.00
10030;DHT22;5055;52.054;8.524;2023-06-04T01:20:02;7.50;97.00
10030;DHT22;5055;52.054;8.524;2023-06-04T01:22:39;7.40;97.00
10030;DHT22;5055;52.054;8.524;2023-06-04T01:25:13;7.40;97.00
10030;DHT22;5055;52.054;8.524;2023-06-04T01:27:48;7.30;97.00
10030;DHT22;5055;52.054;8.524;2023-06-04T01:30:21;7.30;97.00
10030;DHT22;5055;52.054;8.524;2023-06-04T01:32:52;7.30;97.00
10030;DHT22;5055;52.054;8.524;2023-06-04T01:35:22;7.20;97.00
10030;DHT22;5055;52.054;8.524;2023-06-04T01:37:55;7.20;97.00
10030;DHT22;5055;52.054;8.524;2023-06-04T01:40:23;7.20;97.00
10030;DHT22;5055;52.054;8.524;2023-06-04T01:42:53;7.10;97.00
10030;DHT22;5055;52.054;8.524;2023-06-04T01:45:23;7.10;97.00
10030;DHT22;5055;52.054;8.524;2023-06-04T01:47:53;7.10;97.00
10030;DHT22;5055;52.054;8.524;2023-06-04T01:50:22;7.10;97.00
10030;DHT22;5055;52.054;8.524;2023-06-04T01:52:50;7.10;97.00
10030;DHT22;5055;52.054;8.524;2023-06-04T01:55:19;7.10;97.00
10030;DHT22;5055;52.054;8.524;2023-06-04T01:57:48;7.10;97.00
10030;DHT22;5055;52.054;8.524;2023-06-04T02:00:17;7.00;97.00
10030;DHT22;5055;52.054;8.524;2023-06-04T02:02:46;7.00;97.00
10030;DHT22;5055;52.054;8.524;2023-06-04T02:05:17;7.00;97.00
10030;DHT22;5055;52.054;8.524;2023-06-04T02:07:46;6.90;97.00
10030;DHT22;5055;52.054;8.524;2023-06-04T02:10:16;6.90;97.00
10030;DHT22;5055;52.054;8.524;2023-06-04T02:12:54;6.90;97.00
10030;DHT22;5055;52.054;8.524;2023-06-04T02:15:23;6.80;97.00
10030;DHT22;5055;52.054;8.524;2023-06-04T02:17:57;6.80;97.00
10030;DHT22;5055;52.054;8.524;2023-06-04T02:20:28;6.70;97.00
10030;DHT22;5055;52.054;8.524;2023-06-04T02:22:56;6.70;97.00
10030;DHT22;5055;52.054;8.524;2023-06-04T02:25:25;6.70;97.00
10030;DHT22;5055;52.054;8.524;2023-06-04T02:27:53;6.70;97.00
10030;DHT22;5055;52.054;8.524;2023-06-04T02:30:22;6.70;97.00
10030;DHT22;5055;52.054;8.524;2023-06-04T02:32:51;6.60;97.00
10030;DHT22;5055;52.054;8.524;2023-06-04T02:35:22;6.60;97.00
10030;DHT22;5055;52.054;8.524;2023-06-04T02:37:53;6.60;97.00
10030;DHT22;5055;52.054;8.524;2023-06-04T02:40:23;6.50;97.00
10030;DHT22;5055;52.054;8.524;2023-06-04T02:42:52;6.50;97.00
10030;DHT22;5055;52.054;8.524;2023-06-04T02:45:21;6.50;97.00
10030;DHT22;5055;52.054;8.524;2023-06-04T02:47:49;6.50;97.00
10030;DHT22;5055;52.054;8.524;2023-06-04T02:50:18;6.50;97.00
10030;DHT22;5055;52.054;8.524;2023-06-04T02:52:46;6.40;97.00
10030;DHT22;5055;52.054;8.524;2023-06-04T02:55:16;6.40;97.00
10030;DHT22;5055;52.054;8.524;2023-06-04T02:57:45;6.40;97.00
10030;DHT22;5055;52.054;8.524;2023-06-04T03:00:14;6.40;97.00
10030;DHT22;5055;52.054;8.524;2023-06-04T03:02:44;6.30;97.00
10030;DHT22;5055;52.054;8.524;2023-06-04T03:05:15;6.30;97.00
10030;DHT22;5055;52.054;8.524;2023-06-04T03:07:46;6.30;97.00
10030;DHT22;5055;52.054;8.524;2023-06-04T03:10:16;6.30;97.00
10030;DHT22;5055;52.054;8.524;2023-06-04T03:12:44;6.30;97.00
10030;DHT22;5055;52.054;8.524;2023-06-04T03:15:13;6.30;97.00
10030;DHT22;5055;52.054;8.524;2023-06-04T03:17:41;6.20;97.00
10030;DHT22;5055;52.054;8.524;2023-06-04T03:20:12;6.20;97.00
10030;DHT22;5055;52.054;8.524;2023-06-04T03:22:41;6.20;97.00
10030;DHT22;5055;52.054;8.524;2023-06-04T03:25:09;6.20;97.00
10030;DHT22;5055;52.054;8.524;2023-06-04T03:27:39;6.20;97.00
10030;DHT22;5055;52.054;8.524;2023-06-04T03:30:09;6.20;97.00
10030;DHT22;5055;52.054;8.524;2023-06-04T03:32:37;6.20;97.00
10030;DHT22;5055;52.054;8.524;2023-06-04T03:35:07;6.20;97.00
10030;DHT22;5055;52.054;8.524;2023-06-04T03:37:35;6.20;97.00
10030;DHT22;5055;52.054;8.524;2023-06-04T03:40:05;6.20;97.00
10030;DHT22;5055;52.054;8.524;2023-06-04T03:42:34;6.20;97.00
10030;DHT22;5055;52.054;8.524;2023-06-04T03:45:05;6.30;97.00
10030;DHT22;5055;52.054;8.524;2023-06-04T03:47:33;6.30;97.00
10030;DHT22;5055;52.054;8.524;2023-06-04T03:50:02;6.30;97.00
10030;DHT22;5055;52.054;8.524;2023-06-04T03:52:31;6.30;97.00
10030;DHT22;5055;52.054;8.524;2023-06-04T03:54:59;6.40;97.00
10030;DHT22;5055;52.054;8.524;2023-06-04T03:57:28;6.40;97.00
10030;DHT22;5055;52.054;8.524;2023-06-04T03:59:56;6.50;97.00
10030;DHT22;5055;52.054;8.524;2023-06-04T04:02:26;6.60;97.00
10030;DHT22;5055;52.054;8.524;2023-06-04T04:04:55;6.60;97.00
10030;DHT22;5055;52.054;8.524;2023-06-04T04:07:24;6.70;97.00
10030;DHT22;5055;52.054;8.524;2023-06-04T04:09:52;6.70;97.00
10030;DHT22;5055;52.054;8.524;2023-06-04T04:12:21;6.80;97.00
10030;DHT22;5055;52.054;8.524;2023-06-04T04:14:49;6.80;97.00
10030;DHT22;5055;52.054;8.524;2023-06-04T04:17:18;6.90;97.00
10030;DHT22;5055;52.054;8.524;2023-06-04T04:19:50;7.00;97.00
10030;DHT22;5055;52.054;8.524;2023-06-04T04:22:19;7.10;97.00
10030;DHT22;5055;52.054;8.524;2023-06-04T04:24:47;7.20;97.00
10030;DHT22;5055;52.054;8.524;2023-06-04T04:27:16;7.30;97.00
10030;DHT22;5055;52.054;8.524;2023-06-04T04:29:44;7.40;97.00
10030;DHT22;5055;52.054;8.524;2023-06-04T04:32:14;7.50;97.00
10030;DHT22;5055;52.054;8.524;2023-06-04T04:34:52;7.70;97.00
10030;DHT22;5055;52.054;8.524;2023-06-04T04:37:22;7.80;97.00
10030;DHT22;5055;52.054;8.524;2023-06-04T04:39:51;7.90;97.00
10030;DHT22;5055;52.054;8.524;2023-06-04T04:42:19;8.10;97.00
10030;DHT22;5055;52.054;8.524;2023-06-04T04:44:48;8.20;97.00
10030;DHT22;5055;52.054;8.524;2023-06-04T04:47:17;8.40;97.00
10030;DHT22;5055;52.054;8.524;2023-06-04T04:49:45;8.50;97.00
10030;DHT22;5055;52.054;8.524;2023-06-04T04:52:18;8.70;97.00
10030;DHT22;5055;52.054;8.524;2023-06-04T04:54:46;8.80;97.00
10030;DHT22;5055;52.054;8.524;2023-06-04T04:57:15;9.00;97.00
10030;DHT22;5055;52.054;8.524;2023-06-04T04:59:44;9.10;97.00
10030;DHT22;5055;52.054;8.524;2023-06-04T05:02:12;9.30;97.00
10030;DHT22;5055;52.054;8.524;2023-06-04T05:04:40;9.50;97.00
10030;DHT22;5055;52.054;8.524;2023-06-04T05:07:09;9.80;97.00
10030;DHT22;5055;52.054;8.524;2023-06-04T05:09:39;10.10;97.00
10030;DHT22;5055;52.054;8.524;2023-06-04T05:12:08;10.50;97.00
10030;DHT22;5055;52.054;8.524;2023-06-04T05:14:36;10.70;97.00
10030;DHT22;5055;52.054;8.524;2023-06-04T05:17:05;11.00;97.00
10030;DHT22;5055;52.054;8.524;2023-06-04T05:19:33;11.20;97.00
10030;DHT22;5055;52.054;8.524;2023-06-04T05:22:02;11.40;97.00
10030;DHT22;5055;52.054;8.524;2023-06-04T05:24:31;11.60;97.00
10030;DHT22;5055;52.054;8.524;2023-06-04T05:27:01;11.90;97.00
10030;DHT22;5055;52.054;8.524;2023-06-04T05:29:30;12.10;97.00
10030;DHT22;5055;52.054;8.524;2023-06-04T05:31:59;12.40;97.00
10030;DHT22;5055;52.054;8.524;2023-06-04T05:34:28;12.60;97.00
10030;DHT22;5055;52.054;8.524;2023-06-04T05:36:56;12.90;97.00
10030;DHT22;5055;52.054;8.524;2023-06-04T05:39:25;13.10;97.00
10030;DHT22;5055;52.054;8.524;2023-06-04T05:41:53;13.40;97.00
10030;DHT22;5055;52.054;8.524;2023-06-04T05:44:23;13.60;97.00
10030;DHT22;5055;52.054;8.524;2023-06-04T05:46:51;13.70;97.00
10030;DHT22;5055;52.054;8.524;2023-06-04T05:49:20;13.80;97.00
10030;DHT22;5055;52.054;8.524;2023-06-04T05:51:51;14.00;97.00
10030;DHT22;5055;52.054;8.524;2023-06-04T05:54:20;14.20;97.00
10030;DHT22;5055;52.054;8.524;2023-06-04T05:56:48;14.40;97.00
10030;DHT22;5055;52.054;8.524;2023-06-04T05:59:16;14.50;97.00
10030;DHT22;5055;52.054;8.524;2023-06-04T06:01:46;14.80;97.00
10030;DHT22;5055;52.054;8.524;2023-06-04T06:04:15;14.80;97.00
10030;DHT22;5055;52.054;8.524;2023-06-04T06:06:43;15.00;97.00
10030;DHT22;5055;52.054;8.524;2023-06-04T06:09:15;15.20;97.00
10030;DHT22;5055;52.054;8.524;2023-06-04T06:11:44;15.50;97.00
10030;DHT22;5055;52.054;8.524;2023-06-04T06:14:12;15.80;97.00
10030;DHT22;5055;52.054;8.524;2023-06-04T06:16:42;16.00;97.00
10030;DHT22;5055;52.054;8.524;2023-06-04T06:19:12;16.20;97.00
10030;DHT22;5055;52.054;8.524;2023-06-04T06:21:40;16.50;97.00
10030;DHT22;5055;52.054;8.524;2023-06-04T06:24:08;16.80;97.00
10030;DHT22;5055;52.054;8.524;2023-06-04T06:26:37;16.80;97.00
10030;DHT22;5055;52.054;8.524;2023-06-04T06:29:05;17.20;97.00
10030;DHT22;5055;52.054;8.524;2023-06-04T06:31:34;17.60;97.00
10030;DHT22;5055;52.054;8.524;2023-06-04T06:34:02;18.00;97.00
10030;DHT22;5055;52.054;8.524;2023-06-04T06:36:32;18.30;97.00
10030;DHT22;5055;52.054;8.524;2023-06-04T06:39:00;18.60;97.00
10030;DHT22;5055;52.054;8.524;2023-06-04T06:41:29;18.50;97.00
10030;DHT22;5055;52.054;8.524;2023-06-04T06:43:58;18.70;97.00
10030;DHT22;5055;52.054;8.524;2023-06-04T06:46:26;19.00;97.00
10030;DHT22;5055;52.054;8.524;2023-06-04T06:48:55;19.20;97.00
10030;DHT22;5055;52.054;8.524;2023-06-04T06:51:23;19.30;97.00
10030;DHT22;5055;52.054;8.524;2023-06-04T06:53:53;19.60;97.00
10030;DHT22;5055;52.054;8.524;2023-06-04T06:56:21;19.80;97.00
10030;DHT22;5055;52.054;8.524;2023-06-04T06:58:50;19.80;97.00
10030;DHT22;5055;52.054;8.524;2023-06-04T07:01:18;19.80;97.00
10030;DHT22;5055;52.054;8.524;2023-06-04T07:03:48;19.80;97.00
10030;DHT22;5055;52.054;8.524;2023-06-04T07:06:16;19.90;97.00
10030;DHT22;5055;52.054;8.524;2023-06-04T07:08:45;20.10;97.00
10030;DHT22;5055;52.054;8.524;2023-06-04T07:11:17;20.20;97.00
10030;DHT22;5055;52.054;8.524;2023-06-04T07:13:47;20.30;97.00
10030;DHT22;5055;52.054;8.524;2023-06-04T07:16:16;20.30;97.00
10030;DHT22;5055;52.054;8.524;2023-06-04T07:18:47;20.40;97.00
10030;DHT22;5055;52.054;8.524;2023-06-04T07:21:16;20.50;97.00
10030;DHT22;5055;52.054;8.524;2023-06-04T07:23:46;20.60;97.00
10030;DHT22;5055;52.054;8.524;2023-06-04T07:26:18;20.90;97.00
10030;DHT22;5055;52.054;8.524;2023-06-04T07:28:47;21.00;97.00
10030;DHT22;5055;52.054;8.524;2023-06-04T07:31:15;21.00;97.00
10030;DHT22;5055;52.054;8.524;2023-06-04T07:33:44;21.00;97.00
10030;DHT22;5055;52.054;8.524;2023-06-04T07:36:13;20.80;97.00
10030;DHT22;5055;52.054;8.524;2023-06-04T07:38:42;21.20;97.00
10030;DHT22;5055;52.054;8.524;2023-06-04T07:41:10;21.10;97.00
10030;DHT22;5055;52.054;8.524;2023-06-04T07:43:40;21.00;97.00
10030;DHT22;5055;52.054;8.524;2023-06-04T07:46:08;21.30;97.00
10030;DHT22;5055;52.054;8.524;2023-06-04T07:48:38;21.70;97.00
10030;DHT22;5055;52.054;8.524;2023-06-04T07:51:06;22.00;97.00
10030;DHT22;5055;52.054;8.524;2023-06-04T07:53:35;22.30;97.00
10030;DHT22;5055;52.054;8.524;2023-06-04T07:56:06;22.50;97.00
10030;DHT22;5055;52.054;8.524;2023-06-04T07:58:34;22.80;97.00
10030;DHT22;5055;52.054;8.524;2023-06-04T08:01:04;23.10;97.00
10030;DHT22;5055;52.054;8.524;2023-06-04T08:03:34;23.20;97.00
10030;DHT22;5055;52.054;8.524;2023-06-04T08:06:03;23.40;97.00
10030;DHT22;5055;52.054;8.524;2023-06-04T08:08:32;23.60;97.00
10030;DHT22;5055;52.054;8.524;2023-06-04T08:11:01;23.70;97.00
10030;DHT22;5055;52.054;8.524;2023-06-04T08:13:31;23.70;97.00
10030;DHT22;5055;52.054;8.524;2023-06-04T08:15:59;23.90;97.00
10030;DHT22;5055;52.054;8.524;2023-06-04T08:18:29;24.10;97.00
10030;DHT22;5055;52.054;8.524;2023-06-04T08:20:58;24.50;97.00
10030;DHT22;5055;52.054;8.524;2023-06-04T08:23:26;24.40;97.00
10030;DHT22;5055;52.054;8.524;2023-06-04T08:25:55;24.80;97.00
10030;DHT22;5055;52.054;8.524;2023-06-04T08:28:23;25.00;97.00
10030;DHT22;5055;52.054;8.524;2023-06-04T08:30:52;25.10;97.00
10030;DHT22;5055;52.054;8.524;2023-06-04T08:33:21;25.30;97.00
10030;DHT22;5055;52.054;8.524;2023-06-04T08:35:51;25.40;97.00
10030;DHT22;5055;52.054;8.524;2023-06-04T08:38:20;25.30;97.00
10030;DHT22;5055;52.054;8.524;2023-06-04T08:40:52;25.50;97.00
10030;DHT22;5055;52.054;8.524;2023-06-04T08:43:21;25.70;97.00
10030;DHT22;5055;52.054;8.524;2023-06-04T08:45:50;25.40;97.00
10030;DHT22;5055;52.054;8.524;2023-06-04T08:48:22;24.50;97.00
10030;DHT22;5055;52.054;8.524;2023-06-04T08:50:55;23.70;97.00
10030;DHT22;5055;52.054;8.524;2023-06-04T08:53:25;23.90;97.00
10030;DHT22;5055;52.054;8.524;2023-06-04T08:55:54;24.50;97.00
10030;DHT22;5055;52.054;8.524;2023-06-04T08:58:24;24.80;97.00
10030;DHT22;5055;52.054;8.524;2023-06-04T09:00:53;25.30;97.00
10030;DHT22;5055;52.054;8.524;2023-06-04T09:03:26;25.90;97.00
10030;DHT22;5055;52.054;8.524;2023-06-04T09:05:57;26.20;97.00
10030;DHT22;5055;52.054;8.524;2023-06-04T09:08:27;26.10;97.00
10030;DHT22;5055;52.054;8.524;2023-06-04T09:10:58;26.40;97.00
10030;DHT22;5055;52.054;8.524;2023-06-04T09:13:29;26.30;97.00
10030;DHT22;5055;52.054;8.524;2023-06-04T09:15:59;26.10;97.00
10030;DHT22;5055;52.054;8.524;2023-06-04T09:18:28;26.20;97.00
10030;DHT22;5055;52.054;8.524;2023-06-04T09:21:05;26.10;97.00
10030;DHT22;5055;52.054;8.524;2023-06-04T09:23:35;25.50;97.00
10030;DHT22;5055;52.054;8.524;2023-06-04T09:26:07;25.00;97.00
10030;DHT22;5055;52.054;8.524;2023-06-04T09:28:40;25.50;97.00
10030;DHT22;5055;52.054;8.524;2023-06-04T09:31:09;26.10;97.00
10030;DHT22;5055;52.054;8.524;2023-06-04T09:33:45;26.60;97.00
10030;DHT22;5055;52.054;8.524;2023-06-04T09:36:15;27.00;97.00
10030;DHT22;5055;52.054;8.524;2023-06-04T09:38:43;26.90;97.00
10030;DHT22;5055;52.054;8.524;2023-06-04T09:41:12;26.50;97.00
10030;DHT22;5055;52.054;8.524;2023-06-04T09:43:41;26.70;97.00
10030;DHT22;5055;52.054;8.524;2023-06-04T09:46:11;26.90;97.00
10030;DHT22;5055;52.054;8.524;2023-06-04T09:48:41;26.80;97.00
10030;DHT22;5055;52.054;8.524;2023-06-04T09:51:10;27.00;97.00
10030;DHT22;5055;52.054;8.524;2023-06-04T09:53:40;27.40;97.00
10030;DHT22;5055;52.054;8.524;2023-06-04T09:56:09;26.70;97.00
10030;DHT22;5055;52.054;8.524;2023-06-04T09:58:38;26.70;97.00
10030;DHT22;5055;52.054;8.524;2023-06-04T10:01:10;27.10;97.00
10030;DHT22;5055;52.054;8.524;2023-06-04T10:03:40;27.50;97.00
10030;DHT22;5055;52.054;8.524;2023-06-04T10:06:13;27.80;97.00
10030;DHT22;5055;52.054;8.524;2023-06-04T10:08:45;27.90;97.00
10030;DHT22;5055;52.054;8.524;2023-06-04T10:11:18;27.80;97.00
10030;DHT22;5055;52.054;8.524;2023-06-04T10:13:52;27.40;97.00
10030;DHT22;5055;52.054;8.524;2023-06-04T10:16:21;27.70;97.00
10030;DHT22;5055;52.054;8.524;2023-06-04T10:19:01;27.70;97.00
10030;DHT22;5055;52.054;8.524;2023-06-04T10:21:30;27.90;97.00
10030;DHT22;5055;52.054;8.524;2023-06-04T10:24:04;27.70;97.00
10030;DHT22;5055;52.054;8.524;2023-06-04T10:26:33;27.60;97.00
10030;DHT22;5055;52.054;8.524;2023-06-04T10:29:02;27.80;97.00
10030;DHT22;5055;52.054;8.524;2023-06-04T10:31:31;27.80;97.00
10030;DHT22;5055;52.054;8.524;2023-06-04T10:34:00;28.20;97.00
10030;DHT22;5055;52.054;8.524;2023-06-04T10:36:30;28.30;97.00
10030;DHT22;5055;52.054;8.524;2023-06-04T10:38:58;28.00;97.00
10030;DHT22;5055;52.054;8.524;2023-06-04T10:41:28;28.10;97.00
10030;DHT22;5055;52.054;8.524;2023-06-04T10:44:01;27.90;97.00
10030;DHT22;5055;52.054;8.524;2023-06-04T10:46:38;27.50;97.00
10030;DHT22;5055;52.054;8.524;2023-06-04T10:49:09;27.70;97.00
10030;DHT22;5055;52.054;8.524;2023-06-04T10:51:38;28.00;97.00
10030;DHT22;5055;52.054;8.524;2023-06-04T10:54:07;28.20;97.00
10030;DHT22;5055;52.054;8.524;2023-06-04T10:56:37;28.30;97.00
10030;DHT22;5055;52.054;8.524;2023-06-04T10:59:16;28.30;97.00
10030;DHT22;5055;52.054;8.524;2023-06-04T11:01:45;28.70;97.00
10030;DHT22;5055;52.054;8.524;2023-06-04T11:04:23;28.70;97.00
10030;DHT22;5055;52.054;8.524;2023-06-04T11:07:01;28.50;97.00
10030;DHT22;5055;52.054;8.524;2023-06-04T11:09:36;28.20;97.00
10030;DHT22;5055;52.054;8.524;2023-06-04T11:12:07;28.10;97.00
10030;DHT22;5055;52.054;8.524;2023-06-04T11:14:36;28.40;97.00
10030;DHT22;5055;52.054;8.524;2023-06-04T11:17:11;28.60;97.00
10030;DHT22;5055;52.054;8.524;2023-06-04T11:19:40;28.90;97.00
10030;DHT22;5055;52.054;8.524;2023-06-04T11:22:11;29.20;97.00
10030;DHT22;5055;52.054;8.524;2023-06-04T11:24:40;28.50;97.00
10030;DHT22;5055;52.054;8.524;2023-06-04T11:27:10;27.30;97.00
10030;DHT22;5055;52.054;8.524;2023-06-04T11:29:59;26.90;97.00
10030;DHT22;5055;52.054;8.524;2023-06-04T11:32:27;27.20;97.00
10030;DHT22;5055;52.054;8.524;2023-06-04T11:35:03;27.70;97.00
10030;DHT22;5055;52.054;8.524;2023-06-04T11:37:33;27.50;97.00
10030;DHT22;5055;52.054;8.524;2023-06-04T11:40:03;27.30;97.00
10030;DHT22;5055;52.054;8.524;2023-06-04T11:42:34;27.40;97.00
10030;DHT22;5055;52.054;8.524;2023-06-04T11:45:10;27.50;97.00
10030;DHT22;5055;52.054;8.524;2023-06-04T11:47:38;28.10;97.00
10030;DHT22;5055;52.054;8.524;2023-06-04T11:50:08;28.20;97.00
10030;DHT22;5055;52.054;8.524;2023-06-04T11:52:37;28.50;97.00
10030;DHT22;5055;52.054;8.524;2023-06-04T11:55:08;28.50;97.00
10030;DHT22;5055;52.054;8.524;2023-06-04T11:57:40;28.30;97.00
10030;DHT22;5055;52.054;8.524;2023-06-04T12:00:09;28.20;97.00
10030;DHT22;5055;52.054;8.524;2023-06-04T12:02:38;27.30;97.00
10030;DHT22;5055;52.054;8.524;2023-06-04T12:05:14;27.50;97.00
10030;DHT22;5055;52.054;8.524;2023-06-04T12:07:46;27.80;97.00
10030;DHT22;5055;52.054;8.524;2023-06-04T12:10:18;28.00;97.00
10030;DHT22;5055;52.054;8.524;2023-06-04T12:12:54;28.00;97.00
10030;DHT22;5055;52.054;8.524;2023-06-04T12:15:22;28.10;97.00
10030;DHT22;5055;52.054;8.524;2023-06-04T12:17:51;28.50;97.00
10030;DHT22;5055;52.054;8.524;2023-06-04T12:20:32;28.60;97.00
10030;DHT22;5055;52.054;8.524;2023-06-04T12:23:02;28.30;97.00
10030;DHT22;5055;52.054;8.524;2023-06-04T12:25:31;28.50;97.00
10030;DHT22;5055;52.054;8.524;2023-06-04T12:28:01;28.50;97.00
10030;DHT22;5055;52.054;8.524;2023-06-04T12:30:38;28.60;97.00
10030;DHT22;5055;52.054;8.524;2023-06-04T12:33:07;28.70;97.00
10030;DHT22;5055;52.054;8.524;2023-06-04T12:35:36;28.70;97.00
10030;DHT22;5055;52.054;8.524;2023-06-04T12:38:05;28.60;97.00
10030;DHT22;5055;52.054;8.524;2023-06-04T12:40:36;28.80;97.00
10030;DHT22;5055;52.054;8.524;2023-06-04T12:43:06;28.20;97.00
10030;DHT22;5055;52.054;8.524;2023-06-04T12:45:35;28.40;97.00
10030;DHT22;5055;52.054;8.524;2023-06-04T12:48:04;28.60;97.00
10030;DHT22;5055;52.054;8.524;2023-06-04T12:50:33;28.10;97.00
10030;DHT22;5055;52.054;8.524;2023-06-04T12:53:02;28.10;97.00
10030;DHT22;5055;52.054;8.524;2023-06-04T12:55:30;28.30;97.00
10030;DHT22;5055;52.054;8.524;2023-06-04T12:57:59;28.50;97.00
10030;DHT22;5055;52.054;8.524;2023-06-04T13:00:29;28.50;97.00
10030;DHT22;5055;52.054;8.524;2023-06-04T13:02:58;28.90;97.00
10030;DHT22;5055;52.054;8.524;2023-06-04T13:05:30;29.10;97.00
10030;DHT22;5055;52.054;8.524;2023-06-04T13:07:58;28.90;97.00
10030;DHT22;5055;52.054;8.524;2023-06-04T13:10:31;29.30;97.00
10030;DHT22;5055;52.054;8.524;2023-06-04T13:12:59;29.70;97.00
10030;DHT22;5055;52.054;8.524;2023-06-04T13:15:29;29.80;97.00
10030;DHT22;5055;52.054;8.524;2023-06-04T13:17:58;29.90;97.00
10030;DHT22;5055;52.054;8.524;2023-06-04T13:20:26;28.90;97.00
10030;DHT22;5055;52.054;8.524;2023-06-04T13:22:54;28.90;97.00
10030;DHT22;5055;52.054;8.524;2023-06-04T13:25:23;29.20;97.00
10030;DHT22;5055;52.054;8.524;2023-06-04T13:27:51;28.70;97.00
10030;DHT22;5055;52.054;8.524;2023-06-04T13:30:21;28.80;97.00
10030;DHT22;5055;52.054;8.524;2023-06-04T13:32:51;29.00;97.00
10030;DHT22;5055;52.054;8.524;2023-06-04T13:35:19;29.20;97.00
10030;DHT22;5055;52.054;8.524;2023-06-04T13:37:48;29.60;97.00
10030;DHT22;5055;52.054;8.524;2023-06-04T13:40:16;29.80;97.00
10030;DHT22;5055;52.054;8.524;2023-06-04T13:42:45;30.10;97.00
10030;DHT22;5055;52.054;8.524;2023-06-04T13:45:14;30.40;97.00
10030;DHT22;5055;52.054;8.524;2023-06-04T13:47:43;30.00;97.00
10030;DHT22;5055;52.054;8.524;2023-06-04T13:50:13;30.10;97.00
10030;DHT22;5055;52.054;8.524;2023-06-04T13:52:42;30.00;97.00
10030;DHT22;5055;52.054;8.524;2023-06-04T13:55:12;29.80;96.20
10030;DHT22;5055;52.054;8.524;2023-06-04T13:57:40;30.10;96.20
10030;DHT22;5055;52.054;8.524;2023-06-04T14:00:10;29.80;95.70
10030;DHT22;5055;52.054;8.524;2023-06-04T14:02:40;29.70;96.20
10030;DHT22;5055;52.054;8.524;2023-06-04T14:05:09;29.30;97.00
10030;DHT22;5055;52.054;8.524;2023-06-04T14:07:40;29.30;97.00
10030;DHT22;5055;52.054;8.524;2023-06-04T14:10:09;29.20;97.00
10030;DHT22;5055;52.054;8.524;2023-06-04T14:12:38;29.20;97.00
10030;DHT22;5055;52.054;8.524;2023-06-04T14:15:08;29.50;97.00
10030;DHT22;5055;52.054;8.524;2023-06-04T14:17:38;29.70;97.00
10030;DHT22;5055;52.054;8.524;2023-06-04T14:20:07;29.80;97.00
10030;DHT22;5055;52.054;8.524;2023-06-04T14:22:36;29.80;97.00
10030;DHT22;5055;52.054;8.524;2023-06-04T14:25:08;29.70;97.00
10030;DHT22;5055;52.054;8.524;2023-06-04T14:27:36;29.70;97.00
10030;DHT22;5055;52.054;8.524;2023-06-04T14:30:06;29.70;97.00
10030;DHT22;5055;52.054;8.524;2023-06-04T14:32:36;29.10;97.00
10030;DHT22;5055;52.054;8.524;2023-06-04T14:35:06;28.50;97.00
10030;DHT22;5055;52.054;8.524;2023-06-04T14:37:35;28.60;97.00
10030;DHT22;5055;52.054;8.524;2023-06-04T14:40:04;28.80;97.00
10030;DHT22;5055;52.054;8.524;2023-06-04T14:42:34;29.20;97.00
10030;DHT22;5055;52.054;8.524;2023-06-04T14:45:03;29.20;95.70
10030;DHT22;5055;52.054;8.524;2023-06-04T14:47:31;29.40;95.60
10030;DHT22;5055;52.054;8.524;2023-06-04T14:50:00;29.50;96.00
10030;DHT22;5055;52.054;8.524;2023-06-04T14:52:28;29.60;95.80
10030;DHT22;5055;52.054;8.524;2023-06-04T14:54:57;29.30;96.70
10030;DHT22;5055;52.054;8.524;2023-06-04T14:57:26;29.10;97.00
10030;DHT22;5055;52.054;8.524;2023-06-04T14:59:56;28.60;97.00
10030;DHT22;5055;52.054;8.524;2023-06-04T15:02:25;28.20;97.00
10030;DHT22;5055;52.054;8.524;2023-06-04T15:04:53;28.00;97.00
10030;DHT22;5055;52.054;8.524;2023-06-04T15:07:22;28.20;97.00
10030;DHT22;5055;52.054;8.524;2023-06-04T15:09:51;28.50;97.00
10030;DHT22;5055;52.054;8.524;2023-06-04T15:12:19;28.80;97.00
10030;DHT22;5055;52.054;8.524;2023-06-04T15:14:48;29.30;97.00
10030;DHT22;5055;52.054;8.524;2023-06-04T15:17:18;29.40;97.00
10030;DHT22;5055;52.054;8.524;2023-06-04T15:19:46;29.70;97.00
10030;DHT22;5055;52.054;8.524;2023-06-04T15:22:15;29.60;96.60
10030;DHT22;5055;52.054;8.524;2023-06-04T15:24:44;29.50;96.50
10030;DHT22;5055;52.054;8.524;2023-06-04T15:27:12;29.40;96.40
10030;DHT22;5055;52.054;8.524;2023-06-04T15:29:41;29.10;96.00
10030;DHT22;5055;52.054;8.524;2023-06-04T15:32:09;29.00;96.00
10030;DHT22;5055;52.054;8.524;2023-06-04T15:34:39;28.90;97.00
10030;DHT22;5055;52.054;8.524;2023-06-04T15:37:07;28.00;97.00
10030;DHT22;5055;52.054;8.524;2023-06-04T15:39:36;27.70;97.00
10030;DHT22;5055;52.054;8.524;2023-06-04T15:42:05;27.40;97.00
10030;DHT22;5055;52.054;8.524;2023-06-04T15:44:33;27.30;97.00
10030;DHT22;5055;52.054;8.524;2023-06-04T15:47:02;27.00;97.00
10030;DHT22;5055;52.054;8.524;2023-06-04T15:49:31;27.10;97.00
10030;DHT22;5055;52.054;8.524;2023-06-04T15:52:01;27.10;97.00
10030;DHT22;5055;52.054;8.524;2023-06-04T15:54:30;27.10;97.00
10030;DHT22;5055;52.054;8.524;2023-06-04T15:57:13;27.00;97.00
10030;DHT22;5055;52.054;8.524;2023-06-04T15:59:41;26.70;97.00
10030;DHT22;5055;52.054;8.524;2023-06-04T16:02:10;26.60;97.00
10030;DHT22;5055;52.054;8.524;2023-06-04T16:04:39;26.10;97.00
10030;DHT22;5055;52.054;8.524;2023-06-04T16:07:09;25.90;97.00